sensor_id;sensor_type;location;lat;lon;timestamp;pressure;altitude;pressure_sealevel;temperature;humidity
13869;BME280;7004;48.206;16.402;2023-02-01T00:00:32;99745.28;;;5.29;71.26
13869;BME280;7004;48.206;16.402;2023-02-01T00:03:00;99765.44;;;5.48;70.47
13869;BME280;7004;48.206;16.402;2023-02-01T00:05:27;99755.13;;;5.44;71.02
13869;BME280;7004;48.206;16.402;2023-02-01T00:07:53;99763.09;;;5.42;71.42
13869;BME280;7004;48.206;16.402;2023-02-01T00:10:20;99760.72;;;5.57;70.97
13869;BME280;7004;48.206;16.402;2023-02-01T00:12:46;99756.53;;;5.53;71.37
13869;BME280;7004;48.206;16.402;2023-02-01T00:15:12;99767.69;;;5.58;70.89
13869;BME280;7004;48.206;16.402;2023-02-01T00:17:38;99743.63;;;5.26;71.94
13869;BME280;7004;48.206;16.402;2023-02-01T00:20:05;99748.78;;;5.50;70.87
13869;BME280;7004;48.206;16.402;2023-02-01T00:22:31;99746.16;;;5.50;70.89
13869;BME280;7004;48.206;16.402;2023-02-01T00:24:57;99742.69;;;5.49;71.46
13869;BME280;7004;48.206;16.402;2023-02-01T00:27:23;99742.69;;;5.49;71.25
13869;BME280;7004;48.206;16.402;2023-02-01T00:29:49;99749.69;;;5.48;70.90
13869;BME280;7004;48.206;16.402;2023-02-01T00:32:15;99743.53;;;5.50;70.46
13869;BME280;7004;48.206;16.402;2023-02-01T00:34:42;99743.09;;;5.60;70.02
13869;BME280;7004;48.206;16.402;2023-02-01T00:37:08;99747.25;;;5.44;71.29
13869;BME280;7004;48.206;16.402;2023-02-01T00:39:34;99753.34;;;5.44;70.36
13869;BME280;7004;48.206;16.402;2023-02-01T00:42:00;99757.63;;;5.47;70.54
13869;BME280;7004;48.206;16.402;2023-02-01T00:44:28;99766.22;;;5.51;70.82
13869;BME280;7004;48.206;16.402;2023-02-01T00:46:59;99762.25;;;5.20;71.85
13869;BME280;7004;48.206;16.402;2023-02-01T00:49:25;99758.47;;;5.27;71.80
13869;BME280;7004;48.206;16.402;2023-02-01T00:51:51;99768.56;;;5.36;71.29
13869;BME280;7004;48.206;16.402;2023-02-01T00:54:17;99774.41;;;5.21;71.61
13869;BME280;7004;48.206;16.402;2023-02-01T00:56:43;99783.84;;;5.47;71.07
13869;BME280;7004;48.206;16.402;2023-02-01T00:59:12;99778.91;;;5.39;71.18
13869;BME280;7004;48.206;16.402;2023-02-01T01:01:39;99793.06;;;5.13;72.30
13869;BME280;7004;48.206;16.402;2023-02-01T01:04:09;99792.53;;;5.27;71.80
13869;BME280;7004;48.206;16.402;2023-02-01T01:06:43;99784.81;;;5.24;71.85
13869;BME280;7004;48.206;16.402;2023-02-01T01:09:10;99782.91;;;5.28;72.21
13869;BME280;7004;48.206;16.402;2023-02-01T01:11:40;99789.03;;;5.26;72.08
13869;BME280;7004;48.206;16.402;2023-02-01T01:14:23;99796.50;;;5.37;71.21
13869;BME280;7004;48.206;16.402;2023-02-01T01:16:56;99806.84;;;5.40;71.45
13869;BME280;7004;48.206;16.402;2023-02-01T01:19:23;99807.97;;;5.35;71.02
13869;BME280;7004;48.206;16.402;2023-02-01T01:21:55;99790.19;;;5.41;71.60
13869;BME280;7004;48.206;16.402;2023-02-01T01:24:25;99789.88;;;5.49;70.56
13869;BME280;7004;48.206;16.402;2023-02-01T01:26:55;99794.66;;;5.60;70.42
13869;BME280;7004;48.206;16.402;2023-02-01T01:29:26;99787.72;;;5.59;70.06
13869;BME280;7004;48.206;16.402;2023-02-01T01:31:56;99793.34;;;5.50;70.28
13869;BME280;7004;48.206;16.402;2023-02-01T01:34:30;99783.78;;;5.48;70.51
13869;BME280;7004;48.206;16.402;2023-02-01T01:37:00;99802.66;;;5.57;69.74
13869;BME280;7004;48.206;16.402;2023-02-01T01:39:33;99787.44;;;5.44;70.87
13869;BME280;7004;48.206;16.402;2023-02-01T01:42:03;99797.56;;;5.32;71.43
13869;BME280;7004;48.206;16.402;2023-02-01T01:48:00;99782.22;;;5.65;69.98
13869;BME280;7004;48.206;16.402;2023-02-01T01:50:35;99775.00;;;5.50;70.70
13869;BME280;7004;48.206;16.402;2023-02-01T01:53:09;99781.28;;;5.45;70.64
13869;BME280;7004;48.206;16.402;2023-02-01T01:55:44;99779.88;;;5.59;70.62
13869;BME280;7004;48.206;16.402;2023-02-01T01:58:18;99784.59;;;5.51;70.95
13869;BME280;7004;48.206;16.402;2023-02-01T02:00:46;99777.06;;;5.63;70.19
13869;BME280;7004;48.206;16.402;2023-02-01T02:03:22;99782.53;;;5.57;70.68
13869;BME280;7004;48.206;16.402;2023-02-01T02:05:52;99784.09;;;5.41;71.78
13869;BME280;7004;48.206;16.402;2023-02-01T02:08:22;99788.06;;;5.51;71.05
13869;BME280;7004;48.206;16.402;2023-02-01T02:10:51;99776.91;;;5.46;71.35
13869;BME280;7004;48.206;16.402;2023-02-01T02:13:34;99791.13;;;5.40;71.79
13869;BME280;7004;48.206;16.402;2023-02-01T02:37:45;99795.28;;;5.87;71.51
13869;BME280;7004;48.206;16.402;2023-02-01T02:45:49;99795.84;;;5.73;70.97
13869;BME280;7004;48.206;16.402;2023-02-01T02:48:42;99825.13;;;5.84;71.50
13869;BME280;7004;48.206;16.402;2023-02-01T02:54:45;99819.69;;;5.68;71.65
13869;BME280;7004;48.206;16.402;2023-02-01T02:57:30;99821.69;;;5.62;71.93
13869;BME280;7004;48.206;16.402;2023-02-01T03:00:19;99812.19;;;5.59;71.91
13869;BME280;7004;48.206;16.402;2023-02-01T03:03:05;99828.88;;;5.79;71.35
13869;BME280;7004;48.206;16.402;2023-02-01T03:05:52;99819.88;;;5.64;72.43
13869;BME280;7004;48.206;16.402;2023-02-01T03:08:29;99810.06;;;5.47;72.80
13869;BME280;7004;48.206;16.402;2023-02-01T03:11:10;99811.03;;;5.87;71.48
13869;BME280;7004;48.206;16.402;2023-02-01T03:13:59;99811.00;;;5.66;72.73
13869;BME280;7004;48.206;16.402;2023-02-01T03:16:33;99815.41;;;5.66;72.31
13869;BME280;7004;48.206;16.402;2023-02-01T03:19:22;99809.81;;;5.53;72.64
13869;BME280;7004;48.206;16.402;2023-02-01T03:22:06;99824.13;;;5.66;72.53
13869;BME280;7004;48.206;16.402;2023-02-01T03:25:02;99822.44;;;5.43;73.18
13869;BME280;7004;48.206;16.402;2023-02-01T03:27:43;99813.88;;;5.40;72.85
13869;BME280;7004;48.206;16.402;2023-02-01T03:30:45;99829.50;;;5.41;72.88
13869;BME280;7004;48.206;16.402;2023-02-01T03:33:17;99835.97;;;5.55;72.48
13869;BME280;7004;48.206;16.402;2023-02-01T03:39:04;99824.41;;;5.38;72.77
13869;BME280;7004;48.206;16.402;2023-02-01T03:46:52;99827.13;;;5.78;70.77
13869;BME280;7004;48.206;16.402;2023-02-01T03:49:43;99826.09;;;5.82;70.50
13869;BME280;7004;48.206;16.402;2023-02-01T03:52:20;99833.19;;;5.80;70.32
13869;BME280;7004;48.206;16.402;2023-02-01T03:54:49;99809.50;;;5.61;70.52
13869;BME280;7004;48.206;16.402;2023-02-01T03:57:22;99839.03;;;5.86;69.89
13869;BME280;7004;48.206;16.402;2023-02-01T03:59:50;99842.50;;;5.87;69.61
13869;BME280;7004;48.206;16.402;2023-02-01T04:02:16;99848.13;;;5.78;70.58
13869;BME280;7004;48.206;16.402;2023-02-01T04:04:42;99836.03;;;5.96;70.19
13869;BME280;7004;48.206;16.402;2023-02-01T04:07:08;99833.38;;;5.75;70.83
13869;BME280;7004;48.206;16.402;2023-02-01T04:09:35;99824.66;;;5.97;70.09
13869;BME280;7004;48.206;16.402;2023-02-01T04:12:01;99841.06;;;5.80;70.78
13869;BME280;7004;48.206;16.402;2023-02-01T04:14:28;99838.47;;;5.58;71.52
13869;BME280;7004;48.206;16.402;2023-02-01T04:16:54;99843.31;;;5.89;70.97
13869;BME280;7004;48.206;16.402;2023-02-01T04:19:20;99848.19;;;5.98;70.03
13869;BME280;7004;48.206;16.402;2023-02-01T04:21:46;99837.91;;;5.72;70.98
13869;BME280;7004;48.206;16.402;2023-02-01T04:24:12;99851.81;;;5.74;70.61
13869;BME280;7004;48.206;16.402;2023-02-01T04:26:38;99846.16;;;5.83;70.86
13869;BME280;7004;48.206;16.402;2023-02-01T04:29:04;99857.03;;;5.96;70.81
13869;BME280;7004;48.206;16.402;2023-02-01T04:31:30;99840.50;;;5.94;70.33
13869;BME280;7004;48.206;16.402;2023-02-01T04:33:57;99837.97;;;6.12;69.71
13869;BME280;7004;48.206;16.402;2023-02-01T04:36:26;99837.72;;;6.17;69.78
13869;BME280;7004;48.206;16.402;2023-02-01T04:38:52;99850.84;;;6.17;69.92
13869;BME280;7004;48.206;16.402;2023-02-01T04:41:19;99840.56;;;6.33;69.76
13869;BME280;7004;48.206;16.402;2023-02-01T04:43:47;99831.50;;;5.99;70.93
13869;BME280;7004;48.206;16.402;2023-02-01T04:46:14;99825.69;;;6.13;70.95
13869;BME280;7004;48.206;16.402;2023-02-01T04:48:40;99827.84;;;6.24;70.78
13869;BME280;7004;48.206;16.402;2023-02-01T04:51:06;99813.53;;;6.10;71.20
13869;BME280;7004;48.206;16.402;2023-02-01T04:53:32;99816.41;;;6.04;71.92
13869;BME280;7004;48.206;16.402;2023-02-01T04:55:58;99813.28;;;5.96;71.95
13869;BME280;7004;48.206;16.402;2023-02-01T04:58:25;99806.22;;;6.17;71.97
13869;BME280;7004;48.206;16.402;2023-02-01T05:00:51;99810.06;;;6.10;72.38
13869;BME280;7004;48.206;16.402;2023-02-01T05:03:18;99795.69;;;5.98;72.18
13869;BME280;7004;48.206;16.402;2023-02-01T05:05:47;99805.25;;;5.99;72.69
13869;BME280;7004;48.206;16.402;2023-02-01T05:08:13;99793.25;;;6.14;72.37
13869;BME280;7004;48.206;16.402;2023-02-01T05:10:40;99796.50;;;6.00;72.18
13869;BME280;7004;48.206;16.402;2023-02-01T05:13:08;99810.59;;;5.98;72.89
13869;BME280;7004;48.206;16.402;2023-02-01T05:15:53;99802.22;;;6.29;72.55
13869;BME280;7004;48.206;16.402;2023-02-01T05:18:20;99797.66;;;6.13;72.92
13869;BME280;7004;48.206;16.402;2023-02-01T05:20:46;99801.06;;;6.16;72.95
13869;BME280;7004;48.206;16.402;2023-02-01T05:23:12;99802.72;;;6.18;72.26
13869;BME280;7004;48.206;16.402;2023-02-01T05:25:38;99798.78;;;6.08;73.30
13869;BME280;7004;48.206;16.402;2023-02-01T05:28:04;99801.31;;;6.09;74.72
13869;BME280;7004;48.206;16.402;2023-02-01T05:30:30;99798.84;;;6.06;75.65
13869;BME280;7004;48.206;16.402;2023-02-01T05:32:58;99802.75;;;6.17;75.51
13869;BME280;7004;48.206;16.402;2023-02-01T05:35:24;99796.72;;;6.15;75.86
13869;BME280;7004;48.206;16.402;2023-02-01T05:37:51;99795.50;;;6.03;77.53
13869;BME280;7004;48.206;16.402;2023-02-01T05:40:17;99789.59;;;6.18;76.50
13869;BME280;7004;48.206;16.402;2023-02-01T05:42:43;99792.41;;;6.13;76.89
13869;BME280;7004;48.206;16.402;2023-02-01T05:45:10;99792.88;;;6.03;76.90
13869;BME280;7004;48.206;16.402;2023-02-01T05:47:36;99779.91;;;6.00;77.42
13869;BME280;7004;48.206;16.402;2023-02-01T05:50:04;99774.53;;;6.22;76.67
13869;BME280;7004;48.206;16.402;2023-02-01T05:52:32;99774.97;;;6.12;76.55
13869;BME280;7004;48.206;16.402;2023-02-01T05:54:58;99770.09;;;6.43;75.17
13869;BME280;7004;48.206;16.402;2023-02-01T05:57:24;99768.50;;;6.20;75.62
13869;BME280;7004;48.206;16.402;2023-02-01T05:59:51;99772.50;;;6.47;73.78
13869;BME280;7004;48.206;16.402;2023-02-01T06:02:17;99762.41;;;6.19;75.35
13869;BME280;7004;48.206;16.402;2023-02-01T06:04:43;99760.50;;;6.23;75.12
13869;BME280;7004;48.206;16.402;2023-02-01T06:07:09;99756.84;;;6.06;74.80
13869;BME280;7004;48.206;16.402;2023-02-01T06:09:36;99767.25;;;6.28;74.06
13869;BME280;7004;48.206;16.402;2023-02-01T06:12:06;99776.91;;;6.47;73.28
13869;BME280;7004;48.206;16.402;2023-02-01T06:14:32;99766.16;;;6.13;74.44
13869;BME280;7004;48.206;16.402;2023-02-01T06:16:58;99774.84;;;6.34;74.19
13869;BME280;7004;48.206;16.402;2023-02-01T06:19:24;99771.28;;;6.17;74.46
13869;BME280;7004;48.206;16.402;2023-02-01T06:21:51;99784.88;;;6.06;74.22
13869;BME280;7004;48.206;16.402;2023-02-01T06:24:17;99794.63;;;6.23;73.49
13869;BME280;7004;48.206;16.402;2023-02-01T06:26:43;99794.50;;;6.45;73.15
13869;BME280;7004;48.206;16.402;2023-02-01T06:29:10;99777.66;;;6.30;73.75
13869;BME280;7004;48.206;16.402;2023-02-01T06:31:37;99794.38;;;6.48;73.03
13869;BME280;7004;48.206;16.402;2023-02-01T06:34:03;99795.84;;;6.34;72.68
13869;BME280;7004;48.206;16.402;2023-02-01T06:36:29;99792.44;;;6.32;72.95
13869;BME280;7004;48.206;16.402;2023-02-01T06:38:56;99816.56;;;6.41;71.95
13869;BME280;7004;48.206;16.402;2023-02-01T06:41:23;99814.38;;;6.31;72.18
13869;BME280;7004;48.206;16.402;2023-02-01T06:43:49;99812.25;;;6.40;72.09
13869;BME280;7004;48.206;16.402;2023-02-01T06:46:15;99804.03;;;6.47;72.60
13869;BME280;7004;48.206;16.402;2023-02-01T06:48:41;99822.56;;;6.44;72.08
13869;BME280;7004;48.206;16.402;2023-02-01T06:51:26;99822.75;;;6.59;71.27
13869;BME280;7004;48.206;16.402;2023-02-01T06:53:52;99829.47;;;6.26;72.59
13869;BME280;7004;48.206;16.402;2023-02-01T06:56:19;99828.44;;;6.49;71.89
13869;BME280;7004;48.206;16.402;2023-02-01T06:58:46;99821.97;;;6.38;72.04
13869;BME280;7004;48.206;16.402;2023-02-01T07:01:12;99820.44;;;6.52;72.18
13869;BME280;7004;48.206;16.402;2023-02-01T07:03:40;99823.75;;;6.37;74.44
13869;BME280;7004;48.206;16.402;2023-02-01T07:06:06;99814.13;;;6.56;74.24
13869;BME280;7004;48.206;16.402;2023-02-01T07:08:35;99816.91;;;6.72;73.69
13869;BME280;7004;48.206;16.402;2023-02-01T07:11:08;99805.47;;;6.54;72.98
13869;BME280;7004;48.206;16.402;2023-02-01T07:13:35;99815.16;;;6.33;74.61
13869;BME280;7004;48.206;16.402;2023-02-01T07:16:03;99808.00;;;6.56;73.30
13869;BME280;7004;48.206;16.402;2023-02-01T07:18:31;99827.59;;;6.49;73.35
13869;BME280;7004;48.206;16.402;2023-02-01T07:20:57;99817.84;;;6.51;74.21
13869;BME280;7004;48.206;16.402;2023-02-01T07:23:25;99804.09;;;6.46;72.99
13869;BME280;7004;48.206;16.402;2023-02-01T07:26:02;99808.22;;;6.70;71.97
13869;BME280;7004;48.206;16.402;2023-02-01T07:28:32;99811.91;;;6.47;72.24
13869;BME280;7004;48.206;16.402;2023-02-01T07:31:04;99805.38;;;6.56;71.76
13869;BME280;7004;48.206;16.402;2023-02-01T07:33:31;99806.59;;;6.49;72.00
13869;BME280;7004;48.206;16.402;2023-02-01T07:35:59;99808.66;;;6.80;71.08
13869;BME280;7004;48.206;16.402;2023-02-01T07:38:27;99800.75;;;6.61;71.64
13869;BME280;7004;48.206;16.402;2023-02-01T07:41:02;99799.41;;;6.71;70.90
13869;BME280;7004;48.206;16.402;2023-02-01T07:43:29;99814.56;;;6.85;70.54
13869;BME280;7004;48.206;16.402;2023-02-01T07:45:56;99800.53;;;6.85;69.51
13869;BME280;7004;48.206;16.402;2023-02-01T07:48:24;99811.28;;;6.80;70.03
13869;BME280;7004;48.206;16.402;2023-02-01T07:51:02;99818.25;;;6.81;70.37
13869;BME280;7004;48.206;16.402;2023-02-01T07:53:31;99813.00;;;6.81;70.50
13869;BME280;7004;48.206;16.402;2023-02-01T07:55:57;99810.31;;;6.83;70.08
13869;BME280;7004;48.206;16.402;2023-02-01T07:58:25;99809.53;;;6.62;70.39
13869;BME280;7004;48.206;16.402;2023-02-01T08:00:52;99825.69;;;6.71;70.34
13869;BME280;7004;48.206;16.402;2023-02-01T08:03:37;99817.75;;;6.92;69.68
13869;BME280;7004;48.206;16.402;2023-02-01T08:06:04;99823.16;;;6.89;69.23
13869;BME280;7004;48.206;16.402;2023-02-01T08:08:30;99819.53;;;6.72;71.46
13869;BME280;7004;48.206;16.402;2023-02-01T08:10:58;99825.97;;;6.84;71.91
13869;BME280;7004;48.206;16.402;2023-02-01T08:13:24;99820.22;;;6.57;73.17
13869;BME280;7004;48.206;16.402;2023-02-01T08:15:51;99807.75;;;6.62;73.25
13869;BME280;7004;48.206;16.402;2023-02-01T08:18:17;99790.19;;;6.82;74.48
13869;BME280;7004;48.206;16.402;2023-02-01T08:20:44;99767.97;;;6.70;72.62
13869;BME280;7004;48.206;16.402;2023-02-01T08:23:13;99782.75;;;6.72;73.25
13869;BME280;7004;48.206;16.402;2023-02-01T08:25:39;99775.00;;;6.88;72.38
13869;BME280;7004;48.206;16.402;2023-02-01T08:28:06;99774.13;;;7.07;72.03
13869;BME280;7004;48.206;16.402;2023-02-01T08:30:33;99764.47;;;6.88;71.68
13869;BME280;7004;48.206;16.402;2023-02-01T08:32:59;99754.25;;;7.01;71.39
13869;BME280;7004;48.206;16.402;2023-02-01T08:35:26;99754.25;;;7.01;70.03
13869;BME280;7004;48.206;16.402;2023-02-01T08:37:53;99753.31;;;7.02;70.47
13869;BME280;7004;48.206;16.402;2023-02-01T08:40:19;99751.88;;;7.14;69.58
13869;BME280;7004;48.206;16.402;2023-02-01T08:42:47;99746.63;;;7.31;69.64
13869;BME280;7004;48.206;16.402;2023-02-01T08:45:21;99747.94;;;7.22;69.17
13869;BME280;7004;48.206;16.402;2023-02-01T08:47:52;99747.25;;;7.19;68.23
13869;BME280;7004;48.206;16.402;2023-02-01T08:50:20;99750.94;;;7.15;68.18
13869;BME280;7004;48.206;16.402;2023-02-01T08:52:47;99745.53;;;7.35;67.09
13869;BME280;7004;48.206;16.402;2023-02-01T08:55:13;99737.47;;;7.21;67.06
13869;BME280;7004;48.206;16.402;2023-02-01T08:57:40;99750.09;;;7.14;66.72
13869;BME280;7004;48.206;16.402;2023-02-01T09:00:12;99752.56;;;6.81;67.12
13869;BME280;7004;48.206;16.402;2023-02-01T09:02:39;99766.66;;;7.34;66.15
13869;BME280;7004;48.206;16.402;2023-02-01T09:05:06;99749.94;;;7.17;67.05
13869;BME280;7004;48.206;16.402;2023-02-01T09:07:33;99759.13;;;7.26;66.54
13869;BME280;7004;48.206;16.402;2023-02-01T09:09:59;99771.16;;;6.95;66.99
13869;BME280;7004;48.206;16.402;2023-02-01T09:12:31;99774.44;;;7.18;67.47
13869;BME280;7004;48.206;16.402;2023-02-01T09:14:59;99786.00;;;6.96;68.90
13869;BME280;7004;48.206;16.402;2023-02-01T09:17:29;99793.56;;;7.03;69.12
13869;BME280;7004;48.206;16.402;2023-02-01T09:19:55;99782.94;;;7.23;68.70
13869;BME280;7004;48.206;16.402;2023-02-01T09:22:21;99779.16;;;7.11;72.37
13869;BME280;7004;48.206;16.402;2023-02-01T09:24:48;99779.25;;;6.91;74.41
13869;BME280;7004;48.206;16.402;2023-02-01T09:27:14;99773.16;;;6.90;73.95
13869;BME280;7004;48.206;16.402;2023-02-01T09:29:40;99765.34;;;6.89;74.01
13869;BME280;7004;48.206;16.402;2023-02-01T09:32:07;99760.66;;;6.76;74.12
13869;BME280;7004;48.206;16.402;2023-02-01T09:34:33;99760.91;;;6.89;73.22
13869;BME280;7004;48.206;16.402;2023-02-01T09:37:00;99746.47;;;6.62;74.23
13869;BME280;7004;48.206;16.402;2023-02-01T09:39:26;99747.81;;;7.07;71.92
13869;BME280;7004;48.206;16.402;2023-02-01T09:47:51;99741.06;;;6.65;77.92
13869;BME280;7004;48.206;16.402;2023-02-01T09:50:39;99725.31;;;6.65;76.78
13869;BME280;7004;48.206;16.402;2023-02-01T09:53:38;99721.06;;;6.62;78.51
13869;BME280;7004;48.206;16.402;2023-02-01T09:56:12;99727.81;;;6.49;79.60
13869;BME280;7004;48.206;16.402;2023-02-01T10:01:56;99701.84;;;6.79;76.28
13869;BME280;7004;48.206;16.402;2023-02-01T10:04:25;99706.94;;;6.82;78.37
13869;BME280;7004;48.206;16.402;2023-02-01T10:07:26;99697.84;;;6.72;78.45
13869;BME280;7004;48.206;16.402;2023-02-01T10:18:22;99691.84;;;7.05;74.47
13869;BME280;7004;48.206;16.402;2023-02-01T10:26:21;99689.00;;;7.44;71.88
13869;BME280;7004;48.206;16.402;2023-02-01T10:28:58;99678.47;;;7.61;72.03
13869;BME280;7004;48.206;16.402;2023-02-01T10:31:30;99666.94;;;7.97;69.71
13869;BME280;7004;48.206;16.402;2023-02-01T10:34:00;99688.53;;;7.53;69.44
13869;BME280;7004;48.206;16.402;2023-02-01T10:36:41;99682.31;;;7.72;68.30
13869;BME280;7004;48.206;16.402;2023-02-01T10:39:12;99648.78;;;7.42;68.54
13869;BME280;7004;48.206;16.402;2023-02-01T10:41:41;99681.41;;;8.38;66.54
13869;BME280;7004;48.206;16.402;2023-02-01T10:44:16;99661.03;;;8.73;63.79
13869;BME280;7004;48.206;16.402;2023-02-01T10:46:43;99677.47;;;7.97;65.75
13869;BME280;7004;48.206;16.402;2023-02-01T10:49:17;99675.63;;;7.82;67.22
13869;BME280;7004;48.206;16.402;2023-02-01T10:52:14;99672.72;;;7.71;68.33
13869;BME280;7004;48.206;16.402;2023-02-01T10:54:42;99687.56;;;7.89;68.29
13869;BME280;7004;48.206;16.402;2023-02-01T10:57:20;99687.66;;;7.70;69.54
13869;BME280;7004;48.206;16.402;2023-02-01T10:59:47;99723.66;;;7.35;72.11
13869;BME280;7004;48.206;16.402;2023-02-01T11:05:20;99666.94;;;7.47;78.95
13869;BME280;7004;48.206;16.402;2023-02-01T11:07:53;99670.03;;;6.85;78.72
13869;BME280;7004;48.206;16.402;2023-02-01T11:10:40;99681.75;;;7.14;78.70
13869;BME280;7004;48.206;16.402;2023-02-01T11:13:15;99689.78;;;7.46;78.06
13869;BME280;7004;48.206;16.402;2023-02-01T11:15:46;99711.81;;;7.61;78.95
13869;BME280;7004;48.206;16.402;2023-02-01T11:18:27;99699.75;;;7.22;78.14
13869;BME280;7004;48.206;16.402;2023-02-01T11:20:54;99694.88;;;7.14;78.91
13869;BME280;7004;48.206;16.402;2023-02-01T11:23:27;99706.75;;;6.87;84.35
13869;BME280;7004;48.206;16.402;2023-02-01T11:26:01;99709.22;;;6.90;83.36
13869;BME280;7004;48.206;16.402;2023-02-01T11:28:33;99704.31;;;6.65;83.85
13869;BME280;7004;48.206;16.402;2023-02-01T11:31:04;99715.00;;;6.22;85.01
13869;BME280;7004;48.206;16.402;2023-02-01T11:33:35;99717.16;;;6.52;87.18
13869;BME280;7004;48.206;16.402;2023-02-01T11:36:31;99712.38;;;6.22;89.34
13869;BME280;7004;48.206;16.402;2023-02-01T11:39:52;99713.56;;;5.96;92.67
13869;BME280;7004;48.206;16.402;2023-02-01T11:42:16;99707.28;;;5.80;91.92
13869;BME280;7004;48.206;16.402;2023-02-01T11:44:45;99711.81;;;5.97;94.05
13869;BME280;7004;48.206;16.402;2023-02-01T11:47:38;99714.09;;;5.84;92.25
13869;BME280;7004;48.206;16.402;2023-02-01T11:50:17;99699.13;;;5.65;95.82
13869;BME280;7004;48.206;16.402;2023-02-01T11:53:19;99703.72;;;6.01;94.38
13869;BME280;7004;48.206;16.402;2023-02-01T11:59:18;99692.81;;;6.29;94.80
13869;BME280;7004;48.206;16.402;2023-02-01T12:31:05;99680.31;;;6.34;93.02
13869;BME280;7004;48.206;16.402;2023-02-01T12:42:46;99664.56;;;7.25;87.57
13869;BME280;7004;48.206;16.402;2023-02-01T12:45:37;99656.13;;;7.53;85.10
13869;BME280;7004;48.206;16.402;2023-02-01T12:48:26;99643.84;;;7.18;83.92
13869;BME280;7004;48.206;16.402;2023-02-01T12:50:57;99647.53;;;7.49;84.59
13869;BME280;7004;48.206;16.402;2023-02-01T12:54:32;99643.22;;;8.46;79.47
13869;BME280;7004;48.206;16.402;2023-02-01T12:57:05;99627.44;;;9.07;73.61
13869;BME280;7004;48.206;16.402;2023-02-01T12:59:42;99631.41;;;8.53;74.08
13869;BME280;7004;48.206;16.402;2023-02-01T13:05:27;99628.59;;;8.87;72.19
13869;BME280;7004;48.206;16.402;2023-02-01T13:08:08;99625.66;;;8.77;73.54
13869;BME280;7004;48.206;16.402;2023-02-01T13:10:51;99624.88;;;9.21;72.67
13869;BME280;7004;48.206;16.402;2023-02-01T13:13:47;99615.81;;;9.25;72.48
13869;BME280;7004;48.206;16.402;2023-02-01T13:16:30;99613.69;;;9.75;68.82
13869;BME280;7004;48.206;16.402;2023-02-01T13:19:35;99613.44;;;9.21;70.23
13869;BME280;7004;48.206;16.402;2023-02-01T13:28:02;99599.44;;;8.90;69.87
13869;BME280;7004;48.206;16.402;2023-02-01T13:36:45;99580.28;;;9.16;64.59
13869;BME280;7004;48.206;16.402;2023-02-01T13:40:03;99578.38;;;9.04;64.36
13869;BME280;7004;48.206;16.402;2023-02-01T13:42:51;99579.94;;;9.37;62.67
13869;BME280;7004;48.206;16.402;2023-02-01T13:45:31;99594.06;;;8.91;63.09
13869;BME280;7004;48.206;16.402;2023-02-01T13:48:05;99588.22;;;8.24;59.75
13869;BME280;7004;48.206;16.402;2023-02-01T13:50:39;99588.13;;;8.26;60.38
13869;BME280;7004;48.206;16.402;2023-02-01T13:55:41;99577.19;;;9.38;57.33
13869;BME280;7004;48.206;16.402;2023-02-01T13:58:40;99578.19;;;8.31;61.21
13869;BME280;7004;48.206;16.402;2023-02-01T14:04:44;99588.13;;;8.58;60.20
13869;BME280;7004;48.206;16.402;2023-02-01T14:06:53;99595.84;;;8.61;60.89
13869;BME280;7004;48.206;16.402;2023-02-01T14:09:34;99601.97;;;8.45;61.90
13869;BME280;7004;48.206;16.402;2023-02-01T14:12:47;99596.06;;;8.42;61.51
13869;BME280;7004;48.206;16.402;2023-02-01T14:15:26;99598.75;;;8.08;63.09
13869;BME280;7004;48.206;16.402;2023-02-01T14:17:54;99592.03;;;8.35;62.05
13869;BME280;7004;48.206;16.402;2023-02-01T14:20:43;99610.13;;;7.93;64.95
13869;BME280;7004;48.206;16.402;2023-02-01T14:23:15;99610.13;;;7.93;64.83
13869;BME280;7004;48.206;16.402;2023-02-01T14:25:43;99610.50;;;7.70;65.52
13869;BME280;7004;48.206;16.402;2023-02-01T14:28:29;99608.69;;;7.54;66.28
13869;BME280;7004;48.206;16.402;2023-02-01T14:30:57;99595.66;;;7.35;65.52
13869;BME280;7004;48.206;16.402;2023-02-01T14:33:27;99585.22;;;7.83;64.10
13869;BME280;7004;48.206;16.402;2023-02-01T14:36:09;99588.59;;;7.69;64.47
13869;BME280;7004;48.206;16.402;2023-02-01T14:38:37;99591.19;;;7.37;65.70
13869;BME280;7004;48.206;16.402;2023-02-01T14:47:25;99589.34;;;7.05;67.36
13869;BME280;7004;48.206;16.402;2023-02-01T14:58:57;99604.25;;;6.87;68.81
13869;BME280;7004;48.206;16.402;2023-02-01T15:01:38;99610.63;;;6.83;68.14
13869;BME280;7004;48.206;16.402;2023-02-01T15:04:09;99609.53;;;6.87;68.38
13869;BME280;7004;48.206;16.402;2023-02-01T15:06:58;99612.84;;;6.73;68.13
13869;BME280;7004;48.206;16.402;2023-02-01T15:09:42;99621.25;;;6.79;67.99
13869;BME280;7004;48.206;16.402;2023-02-01T15:15:03;99623.91;;;6.97;66.91
13869;BME280;7004;48.206;16.402;2023-02-01T15:17:32;99627.00;;;6.88;68.22
13869;BME280;7004;48.206;16.402;2023-02-01T15:20:15;99631.63;;;7.00;67.02
13869;BME280;7004;48.206;16.402;2023-02-01T15:22:43;99633.38;;;6.82;67.95
13869;BME280;7004;48.206;16.402;2023-02-01T15:25:24;99619.09;;;6.70;68.53
13869;BME280;7004;48.206;16.402;2023-02-01T15:27:51;99627.75;;;6.72;68.75
13869;BME280;7004;48.206;16.402;2023-02-01T15:30:26;99636.03;;;6.99;68.43
13869;BME280;7004;48.206;16.402;2023-02-01T15:35:50;99637.31;;;6.73;68.44
13869;BME280;7004;48.206;16.402;2023-02-01T15:43:47;99635.25;;;6.80;68.62
13869;BME280;7004;48.206;16.402;2023-02-01T15:46:22;99634.47;;;6.78;68.81
13869;BME280;7004;48.206;16.402;2023-02-01T15:48:52;99634.41;;;6.43;67.65
13869;BME280;7004;48.206;16.402;2023-02-01T15:51:23;99639.16;;;6.71;66.51
13869;BME280;7004;48.206;16.402;2023-02-01T15:54:04;99640.25;;;6.85;65.30
13869;BME280;7004;48.206;16.402;2023-02-01T15:56:38;99644.22;;;6.76;66.21
13869;BME280;7004;48.206;16.402;2023-02-01T15:59:16;99663.75;;;6.70;65.28
13869;BME280;7004;48.206;16.402;2023-02-01T16:01:43;99658.13;;;6.78;64.46
13869;BME280;7004;48.206;16.402;2023-02-01T16:04:21;99664.53;;;6.72;65.64
13869;BME280;7004;48.206;16.402;2023-02-01T16:06:58;99660.28;;;6.51;65.43
13869;BME280;7004;48.206;16.402;2023-02-01T16:09:53;99659.81;;;6.43;65.27
13869;BME280;7004;48.206;16.402;2023-02-01T16:12:46;99669.31;;;6.45;64.13
13869;BME280;7004;48.206;16.402;2023-02-01T16:15:13;99677.63;;;6.55;63.81